Time;durP1;ratioP1;P1;durP2;ratioP2;P2;SDS_P1;SDS_P2;PMS_P1;PMS_P2;Temp;Humidity;BMP_temperature;BMP_pressure;BME280_temperature;BME280_humidity;BME280_pressure;Samples;Min_cycle;Max_cycle;Signal;HPM_P1;HPM_P2
2022/01/31 00:02:22;;;;;;;14.07;5.22;;;4.30;93.20;;;;;;5141939;28;20049;-75
2022/01/31 00:04:55;;;;;;;20.90;5.97;;;;;;;;;;5181219;28;20064;-74
2022/01/31 00:07:28;;;;;;;19.48;6.47;;;;;;;;;;5145443;28;22092;-74
2022/01/31 00:10:06;;;;;;;10.90;5.07;;;4.40;93.10;;;;;;5182010;28;20045;-75
2022/01/31 00:15:31;;;;;;;17.88;4.97;;;4.20;92.80;;;;;;5184862;28;20048;-74
2022/01/31 00:18:04;;;;;;;13.63;4.90;;;;;;;;;;5163504;28;20041;-77
2022/01/31 00:20:37;;;;;;;15.27;5.10;;;;;;;;;;5177859;28;20337;-76
2022/01/31 00:23:09;;;;;;;15.75;4.82;;;;;;;;;;5171216;28;20053;-77
2022/01/31 00:25:42;;;;;;;18.60;4.90;;;5.70;93.60;;;;;;5183717;28;20053;-77
2022/01/31 00:28:14;;;;;;;18.50;5.30;;;5.80;93.50;;;;;;5182351;28;20416;-75
2022/01/31 00:30:47;;;;;;;17.70;5.00;;;6.00;93.60;;;;;;5178897;28;20064;-75
2022/01/31 00:33:19;;;;;;;16.02;5.70;;;5.10;93.00;;;;;;5144252;28;20041;-75
2022/01/31 00:35:51;;;;;;;12.50;5.15;;;5.70;93.40;;;;;;5174733;28;20040;-75
2022/01/31 00:38:24;;;;;;;14.30;4.97;;;5.50;93.40;;;;;;5165902;28;21375;-75
2022/01/31 00:40:56;;;;;;;16.00;5.47;;;5.60;93.30;;;;;;5170614;28;20053;-74
2022/01/31 00:43:29;;;;;;;17.63;5.10;;;5.10;93.10;;;;;;5165550;28;20045;-74
2022/01/31 00:46:10;;;;;;;19.42;6.05;;;;;;;;;;5150197;28;20536;-74
2022/01/31 00:48:45;;;;;;;21.35;6.53;;;5.90;93.10;;;;;;5165415;28;20353;-74
2022/01/31 00:51:17;;;;;;;11.90;5.03;;;3.50;92.90;;;;;;5166214;28;20061;-77
2022/01/31 00:53:50;;;;;;;21.55;5.75;;;5.90;93.80;;;;;;5174244;28;20037;-77
2022/01/31 00:56:22;;;;;;;13.23;6.20;;;6.00;93.80;;;;;;5181369;28;20072;-75
2022/01/31 00:58:55;;;;;;;13.93;5.65;;;;;;;;;;5161778;28;20558;-76
2022/01/31 01:01:28;;;;;;;14.23;5.35;;;;;;;;;;5160287;28;20524;-75
2022/01/31 01:04:01;;;;;;;17.48;5.05;;;4.50;94.00;;;;;;5158694;28;20053;-75
2022/01/31 01:06:34;;;;;;;17.25;5.55;;;4.10;93.50;;;;;;5192027;28;20067;-75
2022/01/31 01:09:07;;;;;;;14.85;5.28;;;;;;;;;;5169355;28;21249;-76
2022/01/31 01:11:40;;;;;;;15.38;5.38;;;5.90;93.70;;;;;;5156777;28;20424;-75
2022/01/31 01:14:13;;;;;;;19.67;5.97;;;;;;;;;;5156866;28;20052;-76
2022/01/31 01:16:45;;;;;;;15.10;5.15;;;5.30;94.00;;;;;;5149312;28;20045;-75
2022/01/31 01:19:18;;;;;;;19.23;5.35;;;;;;;;;;5154118;28;20045;-76
2022/01/31 01:21:51;;;;;;;15.18;5.10;;;;;;;;;;5173681;28;20072;-76
2022/01/31 01:24:23;;;;;;;16.87;5.73;;;5.40;94.00;;;;;;5181201;28;20648;-75
2022/01/31 01:26:56;;;;;;;14.77;4.85;;;5.00;94.20;;;;;;5173109;28;20057;-76
2022/01/31 01:29:30;;;;;;;18.75;5.43;;;6.40;94.50;;;;;;5159110;28;20048;-75
2022/01/31 01:32:03;;;;;;;25.13;5.78;;;1.70;93.60;;;;;;5184547;28;20053;-74
2022/01/31 01:34:37;;;;;;;14.90;4.82;;;6.10;94.70;;;;;;5141241;28;20037;-75
2022/01/31 01:37:09;;;;;;;19.23;5.63;;;5.80;94.10;;;;;;5179050;28;20543;-75
2022/01/31 01:39:45;;;;;;;15.35;4.90;;;;;;;;;;5149980;28;20404;-75
2022/01/31 01:42:18;;;;;;;23.52;5.97;;;6.00;94.40;;;;;;5184407;28;20049;-75
2022/01/31 01:44:51;;;;;;;;;;;3.90;93.60;;;;;;5165359;28;20053;-74
2022/01/31 01:47:26;;;;;;;;;;;3.90;93.70;;;;;;5186153;28;19921;-74
2022/01/31 01:49:58;;;;;;;15.85;5.00;;;4.30;94.00;;;;;;5151627;28;19929;-75
2022/01/31 01:52:31;;;;;;;12.50;6.07;;;;;;;;;;5161128;28;20068;-75
2022/01/31 01:55:04;;;;;;;14.03;5.40;;;3.80;94.60;;;;;;5149833;28;20045;-75
2022/01/31 01:57:37;;;;;;;16.63;5.75;;;5.30;95.10;;;;;;5160494;28;20056;-75
2022/01/31 02:00:15;;;;;;;18.35;5.55;;;4.40;95.10;;;;;;5144952;28;21304;-75
2022/01/31 02:02:48;;;;;;;19.95;6.75;;;6.30;95.00;;;;;;5160473;28;20060;-75
2022/01/31 02:05:23;;;;;;;15.73;6.13;;;1.80;94.70;;;;;;5148042;28;20044;-75
2022/01/31 02:07:56;;;;;;;16.10;5.85;;;;;;;;;;5142614;28;20056;-74
2022/01/31 02:10:29;;;;;;;16.65;5.32;;;;;;;;;;5148106;28;20335;-75
2022/01/31 02:13:15;;;;;;;17.65;5.40;;;;;;;;;;5111106;28;20065;-75
2022/01/31 02:16:09;;;;;;;14.90;5.10;;;4.00;95.30;;;;;;5157397;28;20079;-75
2022/01/31 02:18:49;;;;;;;15.30;5.43;;;2.10;95.40;;;;;;5143585;28;20060;-75
2022/01/31 02:21:43;;;;;;;13.48;4.88;;;3.90;95.00;;;;;;5159236;28;20068;-75
2022/01/31 02:24:34;;;;;;;16.48;5.72;;;;;;;;;;5160779;28;20583;-75
2022/01/31 02:27:29;;;;;;;16.60;5.68;;;6.00;96.40;;;;;;5122452;28;20049;-75
2022/01/31 02:30:05;;;;;;;14.40;5.25;;;4.00;95.40;;;;;;5144086;28;20060;-74
2022/01/31 02:32:42;;;;;;;21.20;5.63;;;6.30;96.40;;;;;;5161420;28;20056;-75
2022/01/31 02:35:15;;;;;;;16.02;4.90;;;;;;;;;;5117352;28;20040;-74
2022/01/31 02:37:48;;;;;;;15.63;6.00;;;;;;;;;;5162753;28;20606;-75
2022/01/31 02:40:28;;;;;;;17.15;5.22;;;6.00;96.80;;;;;;5150417;28;20053;-75
2022/01/31 02:43:04;;;;;;;16.20;5.40;;;3.90;95.80;;;;;;5172234;28;20045;-75
2022/01/31 02:45:37;;;;;;;14.07;4.82;;;;;;;;;;5142900;28;20045;-75
2022/01/31 02:48:10;;;;;;;21.95;5.25;;;3.40;96.20;;;;;;5164559;28;20041;-75
2022/01/31 02:50:43;;;;;;;20.98;5.63;;;;;;;;;;5146300;28;20064;-75
2022/01/31 02:53:27;;;;;;;15.25;5.28;;;;;;;;;;5162012;28;20060;-75
2022/01/31 02:56:02;;;;;;;11.90;5.43;;;4.00;95.90;;;;;;5148066;28;20049;-75
2022/01/31 02:58:35;;;;;;;16.38;6.57;;;;;;;;;;5149718;28;20650;-75
2022/01/31 03:01:07;;;;;;;16.38;5.20;;;6.30;97.00;;;;;;5167820;28;20076;-75
2022/01/31 03:03:45;;;;;;;13.93;5.25;;;;;;;;;;5178395;28;20045;-75
2022/01/31 03:06:17;;;;;;;15.93;5.20;;;6.50;96.90;;;;;;5147836;28;20045;-75
2022/01/31 03:08:50;;;;;;;19.13;5.30;;;6.60;97.50;;;;;;5165157;28;20053;-75
2022/01/31 03:11:26;;;;;;;12.50;5.15;;;1.70;96.00;;;;;;5157371;28;20052;-75
2022/01/31 03:14:03;;;;;;;17.35;5.85;;;6.50;97.30;;;;;;5163647;28;20075;-75
2022/01/31 03:16:40;;;;;;;14.15;5.03;;;4.20;96.80;;;;;;5167578;28;20056;-74
2022/01/31 03:19:22;;;;;;;16.20;4.88;;;6.30;97.70;;;;;;5159477;28;20400;-75
2022/01/31 03:22:00;;;;;;;18.67;5.68;;;;;;;;;;5154248;28;20599;-77
2022/01/31 03:24:33;;;;;;;12.88;5.25;;;;;;;;;;5168378;28;20072;-75
2022/01/31 03:27:06;;;;;;;16.13;5.85;;;;;;;;;;5175146;28;20480;-76
2022/01/31 03:29:39;;;;;;;15.45;5.03;;;;;;;;;;5182466;28;20412;-75
2022/01/31 03:32:11;;;;;;;13.20;5.30;;;;;;;;;;5159234;28;20056;-75
2022/01/31 03:34:44;;;;;;;15.40;5.55;;;3.70;96.70;;;;;;5185996;28;20099;-75
2022/01/31 03:37:16;;;;;;;17.85;4.90;;;;;;;;;;5135467;28;20056;-76
2022/01/31 03:39:51;;;;;;;11.80;4.93;;;4.20;97.00;;;;;;5163403;28;20041;-75
2022/01/31 03:42:23;;;;;;;15.38;5.63;;;;;;;;;;5172126;28;20044;-76
2022/01/31 03:44:56;;;;;;;16.20;5.43;;;;;;;;;;5167940;28;21168;-75
2022/01/31 03:47:29;;;;;;;18.67;5.90;;;6.20;98.00;;;;;;5189873;28;20056;-76
2022/01/31 03:50:02;;;;;;;15.07;5.22;;;4.70;97.00;;;;;;5187298;28;20055;-76
2022/01/31 03:52:35;;;;;;;14.10;5.30;;;6.50;97.30;;;;;;5161901;28;20049;-75
2022/01/31 03:55:10;;;;;;;21.65;5.88;;;2.90;95.80;;;;;;5187068;28;20382;-76
2022/01/31 03:57:43;;;;;;;18.98;5.18;;;;;;;;;;5154274;28;20064;-75
2022/01/31 04:00:44;;;;;;;21.33;5.10;;;3.90;96.80;;;;;;5163829;28;20275;-75
2022/01/31 04:03:18;;;;;;;11.23;5.28;;;;;;;;;;5169994;28;20037;-75
2022/01/31 04:05:50;;;;;;;15.75;5.57;;;;;;;;;;5143856;28;1027295;-75
2022/01/31 04:08:23;;;;;;;17.70;5.32;;;;;;;;;;5178003;28;20102;-75
2022/01/31 04:10:56;;;;;;;15.90;5.65;;;;;;;;;;5155118;28;20393;-75
2022/01/31 04:13:28;;;;;;;15.02;5.32;;;;;;;;;;5162347;28;21397;-75
2022/01/31 04:16:01;;;;;;;12.82;5.50;;;;;;;;;;5182676;28;20049;-76
2022/01/31 04:18:34;;;;;;;12.85;5.28;;;;;;;;;;5187061;28;20049;-76
2022/01/31 04:21:08;;;;;;;13.65;4.93;;;;;;;;;;5184573;28;20099;-75
2022/01/31 04:23:40;;;;;;;;;;;3.90;97.80;;;;;;5167135;28;21249;-75
2022/01/31 04:26:14;;;;;;;16.20;5.07;;;;;;;;;;5185693;28;19925;-75
2022/01/31 04:28:51;;;;;;;12.43;4.70;;;;;;;;;;5182369;28;20105;-75
2022/01/31 04:31:37;;;;;;;17.35;5.07;;;;;;;;;;5186068;28;20056;-75
2022/01/31 04:34:10;;;;;;;12.55;4.88;;;;;;;;;;5187572;28;20057;-75
2022/01/31 04:36:42;;;;;;;14.13;5.10;;;;;;;;;;5174793;28;20068;-75
2022/01/31 04:39:18;;;;;;;11.48;5.10;;;;;;;;;;5163900;28;20265;-75
2022/01/31 04:41:51;;;;;;;20.75;5.32;;;3.80;98.40;;;;;;5180072;28;20037;-75
2022/01/31 04:44:24;;;;;;;16.63;5.43;;;;;;;;;;5176541;28;20041;-75
2022/01/31 04:46:57;;;;;;;14.95;4.85;;;;;;;;;;5173568;28;20291;-74
2022/01/31 04:49:29;;;;;;;16.45;4.97;;;;;;;;;;5181618;28;20048;-74
2022/01/31 04:52:03;;;;;;;12.15;5.18;;;3.80;98.50;;;;;;5178323;28;20060;-75
2022/01/31 04:54:36;;;;;;;16.30;5.10;;;;;;;;;;5176165;28;20053;-75
2022/01/31 04:57:09;;;;;;;12.95;4.63;;;;;;;;;;5183350;28;20063;-76
2022/01/31 04:59:43;;;;;;;14.05;5.10;;;;;;;;;;5181195;28;20848;-76
2022/01/31 05:02:16;;;;;;;16.33;4.68;;;;;;;;;;5163634;28;20061;-76
2022/01/31 05:04:49;;;;;;;17.77;4.88;;;;;;;;;;5183817;28;20034;-76
2022/01/31 05:07:21;;;;;;;20.88;5.43;;;;;;;;;;5176147;28;20037;-76
2022/01/31 05:09:54;;;;;;;23.60;5.80;;;;;;;;;;5181737;28;20045;-76
2022/01/31 05:12:27;;;;;;;15.40;4.95;;;;;;;;;;5180617;28;20049;-76
2022/01/31 05:15:00;;;;;;;16.50;5.07;;;;;;;;;;5181427;28;20049;-75
2022/01/31 05:17:32;;;;;;;19.42;5.80;;;;;;;;;;5188460;28;20288;-75
2022/01/31 05:20:06;;;;;;;20.27;5.32;;;3.90;98.70;;;;;;5187384;28;20056;-73
2022/01/31 05:22:38;;;;;;;22.92;5.18;;;;;;;;;;5189570;28;20044;-73
2022/01/31 05:25:11;;;;;;;18.30;5.47;;;;;;;;;;5155002;28;20056;-76
2022/01/31 05:27:44;;;;;;;14.88;5.13;;;;;;;;;;5169368;28;21984;-75
2022/01/31 05:30:17;;;;;;;13.13;5.38;;;;;;;;;;5174418;28;20085;-76
2022/01/31 05:32:50;;;;;;;16.13;5.35;;;;;;;;;;5151695;28;20057;-76
2022/01/31 05:35:23;;;;;;;12.10;4.95;;;;;;;;;;5186276;28;20080;-77
2022/01/31 05:37:55;;;;;;;18.33;5.68;;;;;;;;;;5167735;28;21267;-76
2022/01/31 05:40:28;;;;;;;16.40;5.03;;;;;;;;;;5167972;28;20048;-77
2022/01/31 05:43:01;;;;;;;18.13;5.45;;;;;;;;;;5181042;28;20472;-75
2022/01/31 05:45:34;;;;;;;21.27;5.70;;;;;;;;;;5177312;28;20055;-77
2022/01/31 05:48:07;;;;;;;16.15;5.75;;;;;;;;;;5186577;28;20067;-76
2022/01/31 05:50:39;;;;;;;20.35;5.95;;;;;;;;;;5148836;28;20053;-76
2022/01/31 05:53:12;;;;;;;12.73;5.80;;;;;;;;;;5181199;28;20542;-77
2022/01/31 05:55:46;;;;;;;21.70;6.57;;;;;;;;;;5181197;28;20041;-77
2022/01/31 05:58:18;;;;;;;13.10;6.18;;;;;;;;;;5179314;28;20053;-76
2022/01/31 06:00:51;;;;;;;16.67;6.40;;;;;;;;;;5177118;28;20048;-76
2022/01/31 06:03:24;;;;;;;18.48;6.38;;;;;;;;;;5167527;28;20053;-76
2022/01/31 06:05:57;;;;;;;12.50;6.63;;;;;;;;;;5181718;28;20060;-76
2022/01/31 06:08:30;;;;;;;16.23;6.00;;;;;;;;;;5187756;28;20519;-75
2022/01/31 06:11:02;;;;;;;17.93;7.63;;;;;;;;;;5191374;28;20079;-76
2022/01/31 06:13:35;;;;;;;15.52;6.78;;;;;;;;;;5186504;28;20060;-75
2022/01/31 06:16:08;;;;;;;15.07;8.03;;;;;;;;;;5195492;28;20042;-74
2022/01/31 06:18:41;;;;;;;18.20;7.77;;;;;;;;;;5156146;28;20045;-76
2022/01/31 06:21:14;;;;;;;13.37;7.33;;;;;;;;;;5177861;28;20508;-76
2022/01/31 06:23:48;;;;;;;15.30;7.32;;;;;;;;;;5191343;28;20056;-76
2022/01/31 06:26:21;;;;;;;14.00;7.40;;;;;;;;;;5159847;28;20041;-77
2022/01/31 06:29:17;;;;;;;21.20;7.97;;;;;;;;;;5186995;28;20048;-77
2022/01/31 06:31:51;;;;;;;18.55;8.45;;;;;;;;;;5186238;28;20060;-77
2022/01/31 06:34:24;;;;;;;16.10;8.02;;;;;;;;;;5191301;28;20582;-76
2022/01/31 06:36:57;;;;;;;18.50;8.18;;;;;;;;;;5163043;28;20049;-77
2022/01/31 06:39:30;;;;;;;17.90;6.93;;;;;;;;;;5190142;28;20041;-76
2022/01/31 06:42:03;;;;;;;12.98;6.50;;;;;;;;;;5194695;28;20041;-76
2022/01/31 06:44:37;;;;;;;14.15;6.35;;;;;;;;;;5197374;28;20041;-77
2022/01/31 06:47:10;;;;;;;13.10;5.53;;;;;;;;;;5206384;28;20050;-76
2022/01/31 06:49:43;;;;;;;13.33;6.00;;;;;;;;;;5163486;28;20412;-76
2022/01/31 06:52:15;;;;;;;9.93;5.07;;;;;;;;;;5170865;28;20622;-76
2022/01/31 06:54:51;;;;;;;17.25;6.15;;;;;;;;;;5175853;28;20056;-72
2022/01/31 06:57:25;;;;;;;13.77;4.93;;;;;;;;;;5193163;28;20131;-77
2022/01/31 06:59:58;;;;;;;10.50;5.38;;;;;;;;;;5182675;28;20049;-77
2022/01/31 07:02:31;;;;;;;10.38;5.78;;;;;;;;;;5202285;28;20417;-76
2022/01/31 07:05:04;;;;;;;13.77;5.25;;;;;;;;;;5201313;28;20037;-77
2022/01/31 07:07:37;;;;;;;11.97;4.93;;;;;;;;;;5170175;28;20057;-76
2022/01/31 07:10:10;;;;;;;12.82;5.00;;;;;;;;;;5198660;28;20906;-76
2022/01/31 07:12:49;;;;;;;13.70;5.43;;;;;;;;;;5195746;28;20068;-77
2022/01/31 07:15:21;;;;;;;16.25;4.70;;;;;;;;;;5204064;28;20436;-77
2022/01/31 07:17:54;;;;;;;14.20;5.35;;;;;;;;;;5206896;28;20048;-77
2022/01/31 07:20:37;;;;;;;11.27;4.45;;;;;;;;;;5198462;28;20389;-76
2022/01/31 07:23:17;;;;;;;;;;;4.00;99.60;;;;;;5203136;28;20037;-78
2022/01/31 07:25:50;;;;;;;11.93;4.63;;;;;;;;;;5182726;28;20712;-78
2022/01/31 07:28:23;;;;;;;13.25;5.10;;;;;;;;;;5184421;28;20037;-77
2022/01/31 07:30:57;;;;;;;16.05;5.20;;;;;;;;;;5202685;28;20056;-77
2022/01/31 07:33:29;;;;;;;13.95;4.55;;;;;;;;;;4832606;28;10000267;-78
2022/01/31 07:36:02;;;;;;;12.48;4.50;;;;;;;;;;5177013;28;20125;-75
2022/01/31 07:38:35;;;;;;;12.77;4.95;;;;;;;;;;5197543;28;20060;-75
2022/01/31 07:41:12;;;;;;;15.07;5.35;;;;;;;;;;5180623;28;20062;-76
2022/01/31 07:43:45;;;;;;;12.70;5.00;;;;;;;;;;5181422;28;20181;-76
2022/01/31 07:46:21;;;;;;;10.48;5.00;;;;;;;;;;5202658;28;20044;-75
2022/01/31 07:48:54;;;;;;;10.73;3.40;;;;;;;;;;5199665;28;20049;-76
2022/01/31 07:51:27;;;;;;;15.82;5.18;;;;;;;;;;5178146;28;20072;-76
2022/01/31 07:54:00;;;;;;;10.77;4.43;;;;;;;;;;5184468;28;20053;-75
2022/01/31 07:56:34;;;;;;;21.38;5.00;;;;;;;;;;5201296;28;20519;-75
2022/01/31 07:59:07;;;;;;;10.68;4.95;;;;;;;;;;5204291;28;20056;-75
2022/01/31 08:01:40;;;;;;;18.00;4.70;;;;;;;;;;5186481;28;20056;-75
2022/01/31 08:04:13;;;;;;;;;;;4.30;99.90;;;;;;5185701;28;20300;-77
2022/01/31 08:06:45;;;;;;;10.90;4.38;;;;;;;;;;5199258;28;19924;-77
2022/01/31 08:09:18;;;;;;;11.23;3.95;;;;;;;;;;5203598;28;20049;-76
2022/01/31 08:11:51;;;;;;;9.77;4.38;;;;;;;;;;5202191;28;20330;-77
2022/01/31 08:14:23;;;;;;;10.98;4.18;;;;;;;;;;5202914;28;20056;-76
2022/01/31 08:16:56;;;;;;;10.73;4.35;;;;;;;;;;5200452;28;20075;-77
2022/01/31 08:19:30;;;;;;;8.70;3.72;;;;;;;;;;5201533;28;20072;-76
2022/01/31 08:22:13;;;;;;;9.73;4.00;;;;;;;;;;5182022;28;20511;-77
2022/01/31 08:24:46;;;;;;;6.47;3.43;;;;;;;;;;5202075;28;20037;-76
2022/01/31 08:27:20;;;;;;;8.93;3.97;;;;;;;;;;5202336;28;20131;-77
2022/01/31 08:29:59;;;;;;;9.50;4.18;;;;;;;;;;5174514;28;20056;-77
2022/01/31 08:32:34;;;;;;;7.75;3.80;;;;;;;;;;5201153;28;20247;-75
2022/01/31 08:37:58;;;;;;;9.63;3.58;;;;;;;;;;5200112;28;20045;-76
2022/01/31 08:40:31;;;;;;;11.80;4.00;;;;;;;;;;5179231;28;20044;-76
2022/01/31 08:43:08;;;;;;;12.65;4.07;;;;;;;;;;5181164;28;20570;-76
2022/01/31 08:45:41;;;;;;;8.38;4.22;;;;;;;;;;5194039;28;20562;-76
2022/01/31 08:48:14;;;;;;;9.55;3.50;;;;;;;;;;5197477;28;20420;-77
2022/01/31 08:50:46;;;;;;;12.63;4.13;;;;;;;;;;5200003;28;20531;-75
2022/01/31 08:53:19;;;;;;;6.40;4.05;;;;;;;;;;5206319;28;20057;-75
2022/01/31 08:55:55;;;;;;;13.50;4.87;;;4.50;99.90;;;;;;5181000;28;20045;-76
2022/01/31 08:58:28;;;;;;;9.23;4.55;;;;;;;;;;5199134;28;20413;-75
2022/01/31 09:01:03;;;;;;;9.38;4.15;;;;;;;;;;5183712;28;20249;-76
2022/01/31 09:06:11;;;;;;;10.20;4.10;;;4.30;99.90;;;;;;5186577;28;20045;-75
2022/01/31 09:08:44;;;;;;;12.23;4.22;;;;;;;;;;5185279;28;20056;-75
2022/01/31 09:11:17;;;;;;;8.45;4.88;;;;;;;;;;5205064;28;20068;-75
2022/01/31 09:13:49;;;;;;;10.18;5.20;;;;;;;;;;5212627;28;20114;-77
2022/01/31 09:16:22;;;;;;;10.75;5.55;;;;;;;;;;5192898;28;20052;-76
2022/01/31 09:18:55;;;;;;;9.40;4.47;;;;;;;;;;5204019;28;20052;-76
2022/01/31 09:21:28;;;;;;;11.38;4.45;;;;;;;;;;5185599;28;20296;-77
2022/01/31 09:24:00;;;;;;;6.60;4.47;;;;;;;;;;5186731;28;20053;-78
2022/01/31 09:26:34;;;;;;;7.75;4.18;;;;;;;;;;5202435;28;20084;-77
2022/01/31 09:29:06;;;;;;;;;;;4.30;99.90;;;;;;5206760;28;20042;-76
2022/01/31 09:31:39;;;;;;;10.70;4.88;;;;;;;;;;5202608;28;19928;-76
2022/01/31 09:34:12;;;;;;;7.53;4.43;;;;;;;;;;5158350;28;20047;-76
2022/01/31 09:36:45;;;;;;;8.98;4.38;;;;;;;;;;5199679;28;20276;-76
2022/01/31 09:39:18;;;;;;;10.32;4.75;;;;;;;;;;5198492;28;20228;-76
2022/01/31 09:41:55;;;;;;;8.82;5.25;;;;;;;;;;5195520;28;20048;-77
2022/01/31 09:47:07;;;;;;;8.75;4.18;;;;;;;;;;5183356;28;20508;-75
2022/01/31 09:49:40;;;;;;;10.10;4.53;;;;;;;;;;5181992;28;20068;-76
2022/01/31 09:52:13;;;;;;;6.85;4.45;;;;;;;;;;5193340;28;20528;-76
2022/01/31 09:54:48;;;;;;;7.35;3.72;;;;;;;;;;5151439;28;20049;-75
2022/01/31 09:57:21;;;;;;;5.72;3.80;;;;;;;;;;5194280;28;20049;-76
2022/01/31 09:59:53;;;;;;;7.38;4.00;;;;;;;;;;5199443;28;20047;-76
2022/01/31 10:02:26;;;;;;;8.48;4.32;;;;;;;;;;5202802;28;20504;-76
2022/01/31 10:05:00;;;;;;;6.97;3.67;;;;;;;;;;5185420;28;20615;-76
2022/01/31 10:07:47;;;;;;;8.73;3.70;;;4.30;99.90;;;;;;5182821;28;20045;-77
2022/01/31 10:10:23;;;;;;;4.32;3.40;;;4.30;99.90;;;;;;5203716;28;20049;-75
2022/01/31 10:18:20;;;;;;;5.70;3.67;;;;;;;;;;5202629;28;20037;-76
2022/01/31 10:21:12;;;;;;;7.57;3.80;;;;;;;;;;5198341;28;20404;-76
2022/01/31 10:23:45;;;;;;;5.75;3.70;;;;;;;;;;5182056;28;20171;-76
2022/01/31 10:26:31;;;;;;;8.85;3.67;;;4.40;99.90;;;;;;5165619;28;20044;-76
2022/01/31 10:29:14;;;;;;;9.95;4.00;;;4.40;99.90;;;;;;5198571;28;20049;-76
2022/01/31 10:32:06;;;;;;;7.50;3.70;;;4.30;99.90;;;;;;5198389;28;20485;-76
2022/01/31 10:34:49;;;;;;;6.90;3.40;;;4.30;99.90;;;;;;5181238;28;20778;-75
2022/01/31 10:37:23;;;;;;;6.07;3.17;;;4.30;99.90;;;;;;5194383;28;20056;-76
2022/01/31 10:56:59;;;;;;;4.40;2.72;;;4.40;99.90;;;;;;5197176;28;20816;-77
2022/01/31 10:59:32;;;;;;;4.57;2.50;;;;;;;;;;5193440;28;20041;-76
2022/01/31 11:02:08;;;;;;;3.90;2.23;;;4.40;99.90;;;;;;4138269;28;10000358;-76
2022/01/31 11:04:42;;;;;;;4.47;2.65;;;4.40;99.90;;;;;;5177592;28;20050;-75
2022/01/31 11:07:24;;;;;;;5.45;2.40;;;4.50;99.90;;;;;;5198762;28;20060;-76
2022/01/31 11:09:57;;;;;;;4.07;2.38;;;;;;;;;;5197032;28;20083;-76
2022/01/31 11:12:30;;;;;;;2.30;2.00;;;;;;;;;;5197957;28;20048;-76
2022/01/31 11:15:05;;;;;;;2.72;2.10;;;;;;;;;;5198444;28;20488;-76
2022/01/31 11:17:38;;;;;;;3.53;2.00;;;;;;;;;;5174410;28;20060;-76
2022/01/31 11:20:11;;;;;;;3.80;2.60;;;;;;;;;;5164096;28;20699;-76
2022/01/31 11:22:56;;;;;;;5.40;2.22;;;4.40;99.90;;;;;;5181065;28;20045;-74
2022/01/31 11:25:29;;;;;;;3.75;1.95;;;;;;;;;;5182542;28;20041;-76
2022/01/31 11:28:03;;;;;;;3.47;2.20;;;4.40;99.90;;;;;;5178584;28;20049;-76
2022/01/31 11:30:36;;;;;;;4.03;1.90;;;;;;;;;;5198539;28;20064;-75
2022/01/31 11:33:15;;;;;;;3.63;2.42;;;4.40;99.90;;;;;;5180986;28;20042;-75
2022/01/31 11:35:49;;;;;;;3.90;2.13;;;4.40;99.90;;;;;;5196075;28;20413;-75
2022/01/31 11:38:22;;;;;;;2.80;2.15;;;4.40;99.90;;;;;;5194490;28;20440;-75
2022/01/31 11:41:01;;;;;;;3.10;2.53;;;4.40;99.90;;;;;;5181266;28;20468;-76
2022/01/31 11:43:35;;;;;;;5.65;2.30;;;;;;;;;;5193515;28;20578;-76
2022/01/31 11:46:09;;;;;;;3.28;2.40;;;;;;;;;;5187921;28;20053;-76
2022/01/31 11:48:41;;;;;;;2.35;2.15;;;;;;;;;;5193363;28;20049;-77
2022/01/31 11:51:14;;;;;;;3.10;2.33;;;;;;;;;;5183311;28;20060;-76
2022/01/31 11:53:47;;;;;;;3.30;2.17;;;;;;;;;;5173714;28;20489;-76
2022/01/31 11:56:22;;;;;;;3.03;2.22;;;4.80;99.90;;;;;;5186711;28;20052;-76
2022/01/31 11:58:55;;;;;;;2.90;2.22;;;;;;;;;;5190920;28;20044;-76
2022/01/31 12:01:31;;;;;;;3.15;1.90;;;;;;;;;;5174468;28;20328;-76
2022/01/31 12:04:10;;;;;;;3.05;1.88;;;4.80;99.90;;;;;;5171697;28;20472;-77
2022/01/31 12:06:43;;;;;;;2.47;1.60;;;;;;;;;;5159804;28;20440;-77
2022/01/31 12:09:18;;;;;;;1.83;1.63;;;4.60;99.90;;;;;;5155334;28;20053;-77
2022/01/31 12:12:03;;;;;;;1.65;1.17;;;4.70;99.90;;;;;;5186821;28;20548;-77
2022/01/31 12:14:50;;;;;;;1.75;1.65;;;4.70;99.90;;;;;;5181872;28;20064;-76
2022/01/31 12:17:53;;;;;;;2.58;1.50;;;4.70;99.90;;;;;;5151969;28;20704;-75
2022/01/31 12:23:51;;;;;;;4.97;1.38;;;4.70;99.90;;;;;;5170567;28;20041;-76
2022/01/31 12:26:32;;;;;;;5.82;1.70;;;4.70;99.90;;;;;;5172089;28;20056;-76
2022/01/31 12:29:10;;;;;;;2.45;1.70;;;4.60;99.90;;;;;;5175056;28;20701;-76
2022/01/31 12:31:54;;;;;;;2.15;1.70;;;4.60;99.90;;;;;;5176897;28;20049;-76
2022/01/31 12:34:32;;;;;;;2.08;1.52;;;4.70;99.90;;;;;;5169478;28;20606;-77
2022/01/31 12:37:22;;;;;;;1.65;1.33;;;4.70;99.90;;;;;;5143763;28;20511;-76
2022/01/31 12:40:11;;;;;;;3.45;1.80;;;4.60;99.90;;;;;;5156363;28;20045;-77
2022/01/31 12:45:42;;;;;;;2.58;1.60;;;;;;;;;;5152376;28;20058;-77
2022/01/31 12:48:24;;;;;;;3.58;1.80;;;4.80;99.90;;;;;;5170634;28;20047;-75
2022/01/31 12:50:59;;;;;;;2.40;1.83;;;;;;;;;;5155021;28;22255;-77
2022/01/31 12:56:23;;;;;;;3.15;1.75;;;4.90;99.90;;;;;;5170225;28;21123;-75
2022/01/31 12:59:02;;;;;;;3.72;2.00;;;4.80;99.90;;;;;;5172457;28;20127;-76
2022/01/31 13:01:50;;;;;;;2.22;1.63;;;4.90;99.90;;;;;;5181373;28;20037;-76
2022/01/31 13:04:25;;;;;;;2.85;1.75;;;4.90;99.90;;;;;;5173844;28;20045;-76
2022/01/31 13:07:04;;;;;;;4.13;1.75;;;5.00;99.90;;;;;;5162023;28;20053;-75
2022/01/31 13:09:56;;;;;;;4.05;1.65;;;;;;;;;;5150349;28;20042;-75
2022/01/31 13:12:29;;;;;;;2.83;1.80;;;;;;;;;;5149436;28;20392;-76
2022/01/31 13:15:03;;;;;;;3.10;1.67;;;5.00;99.90;;;;;;5167625;28;20071;-77
2022/01/31 13:17:40;;;;;;;2.67;1.98;;;;;;;;;;5174113;28;20072;-75
2022/01/31 13:20:13;;;;;;;6.35;1.90;;;;;;;;;;5167478;28;20046;-76
2022/01/31 13:23:06;;;;;;;3.58;1.95;;;;;;;;;;5159219;28;21169;-76
2022/01/31 13:25:38;;;;;;;4.35;1.83;;;;;;;;;;5161536;28;20056;-76
2022/01/31 13:28:11;;;;;;;6.43;2.00;;;;;;;;;;5179986;28;20057;-75
2022/01/31 13:30:44;;;;;;;7.07;1.98;;;;;;;;;;5166842;28;20319;-76
2022/01/31 13:33:16;;;;;;;2.00;1.60;;;;;;;;;;5172332;28;20048;-77
2022/01/31 13:35:49;;;;;;;4.95;1.67;;;;;;;;;;5163501;28;20620;-78
2022/01/31 13:38:22;;;;;;;4.47;1.52;;;;;;;;;;5176084;28;20055;-77
2022/01/31 13:40:57;;;;;;;4.53;1.73;;;;;;;;;;5157218;28;20041;-77
2022/01/31 13:43:39;;;;;;;2.22;1.45;;;5.20;99.90;;;;;;5173934;28;20102;-78
2022/01/31 13:46:24;;;;;;;2.22;1.48;;;5.10;99.90;;;;;;5169219;28;20041;-76
2022/01/31 13:49:13;;;;;;;2.20;1.48;;;5.10;99.90;;;;;;5177290;28;20048;-77
2022/01/31 13:51:48;;;;;;;4.40;1.80;;;;;;;;;;5152700;28;20053;-76
2022/01/31 13:54:22;;;;;;;2.10;1.50;;;5.10;99.90;;;;;;5165441;28;20044;-76
2022/01/31 13:56:57;;;;;;;2.63;2.10;;;5.10;99.90;;;;;;5141134;28;20053;-77
2022/01/31 13:59:51;;;;;;;3.22;1.77;;;;;;;;;;5177221;28;20083;-76
2022/01/31 14:02:24;;;;;;;2.15;1.00;;;;;;;;;;5182350;28;20045;-77
2022/01/31 14:04:56;;;;;;;3.23;1.67;;;;;;;;;;5181349;28;20056;-76
2022/01/31 14:07:31;;;;;;;4.15;1.55;;;5.00;99.90;;;;;;5153958;28;20041;-77
2022/01/31 14:10:22;;;;;;;4.90;1.67;;;5.00;99.90;;;;;;5182163;28;21252;-77
2022/01/31 14:13:03;;;;;;;3.08;1.50;;;5.00;99.90;;;;;;5166403;28;20053;-77
2022/01/31 14:15:48;;;;;;;3.30;1.58;;;5.00;99.90;;;;;;5163267;28;20052;-76
2022/01/31 14:18:21;;;;;;;2.83;1.42;;;;;;;;;;5172630;28;20075;-76
2022/01/31 14:20:54;;;;;;;3.60;1.92;;;4.90;99.90;;;;;;5164315;28;20045;-76
2022/01/31 14:23:27;;;;;;;4.32;2.10;;;;;;;;;;5156343;28;20088;-76
2022/01/31 14:26:00;;;;;;;3.17;2.03;;;;;;;;;;5141283;28;20742;-77
2022/01/31 14:28:34;;;;;;;3.13;1.85;;;4.80;99.90;;;;;;5158628;28;20045;-76
2022/01/31 14:31:07;;;;;;;4.28;2.20;;;;;;;;;;5176340;28;20612;-76
2022/01/31 14:33:46;;;;;;;4.33;1.60;;;4.80;99.90;;;;;;5154573;28;20060;-77
2022/01/31 14:36:20;;;;;;;3.33;1.52;;;;;;;;;;5179742;28;20052;-77
2022/01/31 14:40:07;;;;;;;3.60;1.67;;;4.80;99.90;;;;;;5184828;28;20049;-76
2022/01/31 14:42:37;;;;;;;3.08;2.55;;;4.80;99.90;;;;;;5155534;28;20088;-77
2022/01/31 14:48:02;;;;;;;4.90;1.83;;;;;;;;;;5164429;28;20065;-76
2022/01/31 14:50:42;;;;;;;3.53;1.30;;;4.70;99.90;;;;;;5166279;28;20044;-77
2022/01/31 14:53:18;;;;;;;2.85;1.83;;;4.70;99.90;;;;;;5153603;28;20492;-76
2022/01/31 14:55:51;;;;;;;7.97;2.10;;;;;;;;;;5187647;28;20059;-77
2022/01/31 14:58:24;;;;;;;3.60;1.77;;;;;;;;;;5177485;28;20096;-76
2022/01/31 15:01:01;;;;;;;4.07;1.83;;;;;;;;;;5185282;28;20061;-77
2022/01/31 15:03:33;;;;;;;5.72;1.58;;;;;;;;;;5181714;28;20046;-76
2022/01/31 15:06:06;;;;;;;3.38;1.70;;;;;;;;;;5178695;28;21109;-77
2022/01/31 15:08:39;;;;;;;7.75;2.22;;;;;;;;;;5150187;28;20056;-76
2022/01/31 15:11:12;;;;;;;3.70;1.70;;;;;;;;;;5138054;28;20095;-77
2022/01/31 15:13:47;;;;;;;3.00;1.80;;;4.60;99.90;;;;;;5179988;28;20048;-77
2022/01/31 15:16:25;;;;;;;3.85;2.38;;;;;;;;;;5145512;28;20057;-77
2022/01/31 15:18:58;;;;;;;4.88;2.17;;;;;;;;;;5173214;28;21732;-77
2022/01/31 15:21:52;;;;;;;4.10;1.95;;;;;;;;;;5182858;28;20056;-75
2022/01/31 15:24:24;;;;;;;5.85;2.80;;;;;;;;;;5179643;28;20051;-76
2022/01/31 15:26:57;;;;;;;4.30;2.45;;;;;;;;;;5163433;28;20053;-76
2022/01/31 15:29:30;;;;;;;3.53;2.17;;;;;;;;;;5160925;28;20060;-74